Bay State — WBYQ — position and weather

sailwx.info

Track history (hours):
 
Tides and Currents Weather Stations Pressure Air Temp Water Temp Dewpoint Dewpoint Depression Visibility Wind Speed Wind Dir Waves Ship Positions

Bay State

Owner: Crowley Petroleum Services, Inc., Jacksonville, FL. More information available from US FCC via Universal Licensing System and Coast Guard Vessel Documentation Center.

Last reported at 2018-Feb-19 18:00 UTC. Time now 2018-Feb-19 18:08 UTC.
Position N 29°35' W 093°48'.

Length 186 m; draft 11.7 m.

Type: Tanker. MMSI: 367677560.

Date/timePositionNaut miles runAvg speedWind from/ knotsBaromVisibWave heightAir tempDewpointWater temp
2018-Feb-19 18:00N 29°35' W 093°48'611.3
2018-Feb-19 17:30N 29°41' W 093°50'510.7
2018-Feb-19 17:00N 29°45' W 093°53'4 8.0
2018-Feb-19 16:30N 29°48' W 093°57'3 6.9
2018-Feb-19 16:00N 29°51' W 093°57'4 7.2
2018-Feb-19 15:30N 29°54' W 093°54'3 6.4
2018-Feb-19 15:00N 29°56' W 093°52'3 5.4
2018-Feb-19 14:30N 29°59' W 093°53'3 6.3
2018-Feb-19 14:00N 29°60' W 093°56'2 4.0
2018-Feb-19 13:30N 30°01' W 093°58'0 0.1
2018-Feb-19 12:58N 30°01' W 093°58'0 0.0
2018-Feb-19 12:28N 30°01' W 093°58'0 0.0
2018-Feb-19 11:59N 30°01' W 093°58'0 0.0
2018-Feb-19 11:31N 30°01' W 093°58'0 0.0
2018-Feb-19 11:00N 30°01' W 093°58'0 0.0
2018-Feb-19 10:31N 30°01' W 093°58'0 0.0
2018-Feb-19 10:00N 30°01' W 093°58'0 0.0
2018-Feb-19 09:31N 30°01' W 093°58'0 0.0
2018-Feb-19 09:00N 30°01' W 093°58'0 0.0
2018-Feb-19 08:30N 30°01' W 093°58'0 0.0
2018-Feb-19 07:59N 30°01' W 093°58'0 0.0
2018-Feb-19 07:30N 30°01' W 093°58'0 0.0
2018-Feb-19 07:01N 30°01' W 093°58'0 0.0
2018-Feb-19 06:31N 30°01' W 093°58'0 0.0
2018-Feb-19 05:58N 30°01' W 093°58'0 0.0
2018-Feb-19 05:28N 30°01' W 093°58'0 0.0
2018-Feb-19 04:59N 30°01' W 093°58'0 0.0
2018-Feb-19 04:28N 30°01' W 093°58'0 0.0
2018-Feb-19 03:55N 30°01' W 093°58'0 0.0
2018-Feb-19 03:28N 30°01' W 093°58'0 0.0
2018-Feb-19 02:58N 30°01' W 093°58'0 0.0
2018-Feb-19 02:28N 30°01' W 093°58'0 0.0
2018-Feb-19 01:55N 30°01' W 093°58'0 0.0
2018-Feb-19 01:28N 30°01' W 093°58'0 0.0
2018-Feb-19 00:58N 30°01' W 093°58'0 0.0
2018-Feb-19 00:28N 30°01' W 093°58'0 0.0
2018-Feb-18 23:55N 30°01' W 093°58'0 0.0
2018-Feb-18 23:28N 30°01' W 093°58'0 0.0
2018-Feb-18 22:58N 30°01' W 093°58'0 0.0
2018-Feb-18 22:28N 30°01' W 093°58'0 0.0
2018-Feb-18 21:58N 30°01' W 093°58'0 0.0
2018-Feb-18 21:28N 30°01' W 093°58'0 0.0
2018-Feb-18 20:55N 30°01' W 093°58'0 0.0
2018-Feb-18 20:28N 30°01' W 093°58'0 0.0
2018-Feb-18 19:58N 30°01' W 093°58'0 0.0
2018-Feb-18 19:25N 30°01' W 093°58'0 0.0
2018-Feb-18 18:55N 30°01' W 093°58'0 0.0
2018-Feb-18 18:28N 30°01' W 093°58'0 0.0
2018-Feb-18 17:58N 30°01' W 093°58'0 0.0
2018-Feb-18 17:25N 30°01' W 093°58'0 0.0
2018-Feb-18 16:58N 30°01' W 093°58'0 0.0
2018-Feb-18 16:28N 30°01' W 093°58'0 0.0
2018-Feb-18 15:58N 30°01' W 093°58'0 0.0
2018-Feb-18 15:28N 30°01' W 093°58'0 0.0
2018-Feb-18 14:58N 30°01' W 093°58'0 0.0
2018-Feb-18 14:31N 30°01' W 093°58'0 0.0
2018-Feb-18 14:01N 30°01' W 093°58'0 0.0
2018-Feb-18 13:31N 30°01' W 093°58'0 0.0
2018-Feb-18 13:00N 30°01' W 093°58'0 0.0
2018-Feb-18 12:31N 30°01' W 093°58'0 0.0
2018-Feb-18 12:00N 30°01' W 093°58'0 0.0
2018-Feb-18 11:31N 30°01' W 093°58'0 0.0
2018-Feb-18 11:00N 30°01' W 093°58'0 0.0
2018-Feb-18 10:30N 30°01' W 093°58'0 0.0
2018-Feb-18 10:01N 30°01' W 093°58'0 0.0
2018-Feb-18 09:28N 30°01' W 093°58'0 0.0
2018-Feb-18 08:58N 30°01' W 093°58'0 0.0
2018-Feb-18 08:28N 30°01' W 093°58'0 0.0
2018-Feb-18 07:58N 30°01' W 093°58'0 0.0
2018-Feb-18 07:28N 30°01' W 093°58'0 0.0
2018-Feb-18 06:58N 30°01' W 093°58'0 0.0
2018-Feb-18 06:30N 30°01' W 093°58'0 0.0
2018-Feb-18 06:01N 30°01' W 093°58'0 0.0
2018-Feb-18 05:30N 30°01' W 093°58'0 0.0
2018-Feb-18 05:00N 30°01' W 093°58'0 0.0
2018-Feb-18 04:29N 30°01' W 093°58'0 0.0
2018-Feb-18 03:59N 30°01' W 093°58'0 0.0
2018-Feb-18 03:29N 30°01' W 093°58'0 0.0
2018-Feb-18 02:59N 30°01' W 093°58'0 0.0
2018-Feb-18 02:29N 30°01' W 093°58'0 0.0
2018-Feb-18 01:59N 30°01' W 093°58'0 0.0
2018-Feb-18 01:26N 30°01' W 093°58'0 0.0
2018-Feb-18 00:59N 30°01' W 093°58'0 0.0
2018-Feb-18 00:29N 30°01' W 093°58'0 0.0
2018-Feb-17 23:59N 30°01' W 093°58'0 0.0
2018-Feb-17 23:28N 30°01' W 093°58'0 0.0
2018-Feb-17 22:58N 30°01' W 093°58'0 0.0
2018-Feb-17 22:25N 30°01' W 093°58'0 0.0
2018-Feb-17 22:01N 30°01' W 093°58'0 0.0
2018-Feb-17 21:30N 30°01' W 093°58'0 0.0
2018-Feb-17 21:00N 30°01' W 093°58'0 0.0
2018-Feb-17 20:26N 30°01' W 093°58'0 0.0
2018-Feb-17 19:56N 30°01' W 093°58'0 0.0
2018-Feb-17 19:29N 30°01' W 093°58'0 0.0
2018-Feb-17 18:56N 30°01' W 093°58'0 0.0
2018-Feb-17 18:29N 30°01' W 093°58'0 0.0
2018-Feb-17 18:00N 30°01' W 093°58'0 0.0
2018-Feb-17 17:30N 30°01' W 093°58'0 0.0
2018-Feb-17 17:01N 30°01' W 093°58'0 0.0
2018-Feb-17 16:30N 30°01' W 093°58'0 0.0
2018-Feb-17 16:00N 30°01' W 093°58'0 0.0
2018-Feb-17 15:31N 30°01' W 093°58'0 0.0
2018-Feb-17 15:01N 30°01' W 093°58'0 0.0
2018-Feb-17 14:31N 30°01' W 093°58'0 0.0
2018-Feb-17 14:01N 30°01' W 093°58'0 0.0
2018-Feb-17 13:30N 30°01' W 093°58'0 0.0
2018-Feb-17 13:01N 30°01' W 093°58'0 0.0
2018-Feb-17 12:30N 30°01' W 093°58'0 0.0
2018-Feb-17 11:58N 30°01' W 093°58'0 0.0
2018-Feb-17 11:25N 30°01' W 093°58'0 0.0
2018-Feb-17 10:58N 30°01' W 093°58'0 0.0
2018-Feb-17 10:28N 30°01' W 093°58'0 0.0
2018-Feb-17 09:58N 30°01' W 093°58'0 0.0
2018-Feb-17 09:28N 30°01' W 093°58'0 0.0
2018-Feb-17 08:58N 30°01' W 093°58'0 0.0
2018-Feb-17 08:28N 30°01' W 093°58'0 0.0
2018-Feb-17 07:58N 30°01' W 093°58'0 0.0
2018-Feb-17 07:30N 30°01' W 093°58'0 0.0
2018-Feb-17 07:01N 30°01' W 093°58'0 0.0
2018-Feb-17 06:28N 30°01' W 093°58'0 0.0
2018-Feb-17 06:00N 30°01' W 093°58'0 0.0
2018-Feb-17 05:26N 30°01' W 093°58'0 0.0
2018-Feb-17 04:58N 30°01' W 093°58'0 0.0
2018-Feb-17 04:29N 30°01' W 093°58'0 0.0
2018-Feb-17 03:52N 30°01' W 093°58'0 0.0
2018-Feb-17 03:29N 30°01' W 093°58'0 0.0
2018-Feb-17 02:59N 30°01' W 093°58'0 0.0
2018-Feb-17 02:28N 30°01' W 093°58'0 0.0
2018-Feb-17 01:58N 30°01' W 093°58'0 0.0
2018-Feb-17 01:28N 30°01' W 093°58'0 0.0
2018-Feb-17 00:58N 30°01' W 093°58'0 0.0
2018-Feb-17 00:25N 30°01' W 093°58'0 0.0
2018-Feb-16 23:58N 30°01' W 093°58'0 0.0
2018-Feb-16 23:30N 30°01' W 093°58'0 0.0
2018-Feb-16 23:01N 30°01' W 093°58'0 0.0
2018-Feb-16 22:30N 30°01' W 093°58'0 0.0
2018-Feb-16 22:01N 30°01' W 093°58'0 0.0
2018-Feb-16 21:31N 30°01' W 093°58'0 0.0
2018-Feb-16 21:00N 30°01' W 093°58'0 0.0
2018-Feb-16 20:30N 30°01' W 093°58'0 0.0
2018-Feb-16 20:01N 30°01' W 093°58'0 0.0
2018-Feb-16 19:30N 30°01' W 093°58'0 0.0
2018-Feb-16 19:01N 30°01' W 093°58'0 0.0
2018-Feb-16 18:31N 30°01' W 093°58'0 0.0
2018-Feb-16 18:01N 30°01' W 093°58'0 0.0
2018-Feb-16 17:31N 30°01' W 093°58'0 0.0
2018-Feb-16 17:01N 30°01' W 093°58'0 0.0
2018-Feb-16 16:31N 30°01' W 093°58'0 0.0
2018-Feb-16 16:00N 30°01' W 093°58'0 0.0
2018-Feb-16 15:31N 30°01' W 093°58'0 0.0
2018-Feb-16 14:59N 30°01' W 093°58'0 0.0
2018-Feb-16 14:29N 30°01' W 093°58'0 0.0
2018-Feb-16 13:59N 30°01' W 093°58'0 0.0
2018-Feb-16 13:29N 30°01' W 093°58'0 0.0
2018-Feb-16 12:59N 30°01' W 093°58'0 0.0
2018-Feb-16 12:29N 30°01' W 093°58'0 0.0
2018-Feb-16 11:59N 30°01' W 093°58'0 0.0
2018-Feb-16 11:26N 30°01' W 093°58'0 0.0
2018-Feb-16 10:59N 30°01' W 093°58'0 0.0
2018-Feb-16 10:30N 30°01' W 093°58'0 0.0
2018-Feb-16 09:58N 30°01' W 093°58'0 0.0
2018-Feb-16 09:28N 30°01' W 093°58'0 0.0
2018-Feb-16 08:58N 30°01' W 093°58'0 0.0
2018-Feb-16 08:30N 30°01' W 093°58'0 0.0
2018-Feb-16 07:59N 30°01' W 093°58'0 0.0
2018-Feb-16 07:31N 30°01' W 093°58'0 0.0
2018-Feb-16 07:00N 30°01' W 093°58'0 0.0
2018-Feb-16 06:30N 30°01' W 093°58'0 0.0
2018-Feb-16 06:00N 30°01' W 093°58'0 0.0
2018-Feb-16 05:30N 30°01' W 093°58'0 0.0
2018-Feb-16 04:50N 30°01' W 093°58'0 0.0
2018-Feb-16 04:29N 30°01' W 093°58'0 0.0
2018-Feb-16 03:59N 30°01' W 093°58'0 0.0
2018-Feb-16 03:30N 30°01' W 093°58'0 0.0
2018-Feb-16 02:58N 30°01' W 093°58'0 0.0
2018-Feb-16 02:28N 30°01' W 093°58'0 0.0
2018-Feb-16 02:00N 30°01' W 093°58'0 0.0
2018-Feb-16 01:28N 30°01' W 093°58'0 0.0
2018-Feb-16 00:58N 30°01' W 093°58'0 0.0
2018-Feb-16 00:29N 30°01' W 093°58'0 0.0
2018-Feb-16 00:00N 30°01' W 093°58'0 0.0
2018-Feb-15 23:30N 30°01' W 093°58'0 0.0
2018-Feb-15 23:00N 30°01' W 093°58'0 0.0
2018-Feb-15 22:30N 30°01' W 093°58'0 0.0
2018-Feb-15 22:00N 30°01' W 093°58'0 0.0
2018-Feb-15 21:30N 30°01' W 093°58'0 0.0
2018-Feb-15 21:00N 30°01' W 093°58'0 0.0
2018-Feb-15 20:30N 30°01' W 093°58'0 0.0
2018-Feb-15 20:00N 30°01' W 093°58'0 0.0
2018-Feb-15 19:30N 30°01' W 093°58'0 0.0
2018-Feb-15 19:00N 30°01' W 093°58'0 0.0
2018-Feb-15 18:30N 30°01' W 093°58'0 0.0
2018-Feb-15 18:00N 30°01' W 093°58'0 0.0
2018-Feb-15 17:30N 30°01' W 093°58'0 0.0
2018-Feb-15 17:00N 30°01' W 093°58'0 0.0
2018-Feb-15 16:30N 30°01' W 093°58'0 0.0
2018-Feb-15 16:00N 30°01' W 093°58'0 0.0
2018-Feb-15 15:27N 30°01' W 093°58'0 0.0
2018-Feb-15 15:00N 30°01' W 093°58'0 0.0
2018-Feb-15 14:24N 30°01' W 093°58'0 0.0
2018-Feb-15 14:00N 30°01' W 093°58'0 0.0
2018-Feb-15 13:24N 30°01' W 093°58'0 0.0
2018-Feb-15 13:00N 30°01' W 093°58'0 0.0
2018-Feb-15 12:30N 30°01' W 093°58'0 0.0
2018-Feb-15 12:00N 30°01' W 093°58'0 0.0
2018-Feb-15 11:27N 30°01' W 093°58'0 0.0
2018-Feb-15 10:57N 30°01' W 093°58'0 0.0
2018-Feb-15 10:30N 30°01' W 093°58'0 0.0
2018-Feb-15 10:00N 30°01' W 093°58'0 0.0
2018-Feb-15 09:30N 30°01' W 093°58'0 0.0
2018-Feb-15 09:00N 30°01' W 093°58'0 0.0
2018-Feb-15 08:30N 30°01' W 093°58'0 0.0
2018-Feb-15 08:00N 30°01' W 093°58'0 0.0
2018-Feb-15 07:30N 30°01' W 093°58'0 0.0
2018-Feb-15 07:00N 30°01' W 093°58'0 0.0
2018-Feb-15 06:24N 30°01' W 093°58'0 0.0
2018-Feb-15 06:00N 30°01' W 093°58'0 0.0
2018-Feb-15 05:27N 30°01' W 093°58'0 0.0
2018-Feb-15 05:00N 30°01' W 093°58'0 0.0
2018-Feb-15 04:30N 30°01' W 093°58'0 0.0
2018-Feb-15 04:00N 30°01' W 093°58'0 0.0
2018-Feb-15 03:30N 30°01' W 093°58'0 0.0
2018-Feb-15 03:00N 30°01' W 093°58'0 0.0
2018-Feb-15 02:30N 30°01' W 093°58'0 0.0
2018-Feb-15 02:00N 30°01' W 093°58'0 0.0
2018-Feb-15 01:30N 30°01' W 093°58'0 0.0
2018-Feb-15 00:54N 30°01' W 093°58'0 0.0
2018-Feb-15 00:31N 30°01' W 093°58'0 0.0
2018-Feb-14 23:59N 30°01' W 093°58'0 0.0
2018-Feb-14 23:26N 30°01' W 093°58'0 0.0
2018-Feb-14 22:59N 30°01' W 093°58'0 0.0
2018-Feb-14 22:29N 30°01' W 093°58'0 0.0
2018-Feb-14 21:56N 30°01' W 093°58'0 0.0
2018-Feb-14 21:29N 30°01' W 093°58'0 0.0
2018-Feb-14 20:59N 30°01' W 093°58'0 0.0
2018-Feb-14 20:29N 30°01' W 093°58'0 0.0
2018-Feb-14 19:59N 30°01' W 093°58'0 0.0
2018-Feb-14 19:29N 30°01' W 093°58'0 0.0
2018-Feb-14 18:59N 30°01' W 093°58'0 0.0
2018-Feb-14 18:29N 30°01' W 093°58'0 0.0
2018-Feb-14 17:59N 30°01' W 093°58'0 0.0
2018-Feb-14 17:29N 30°01' W 093°58'0 0.0
2018-Feb-14 16:59N 30°01' W 093°58'0 0.0
2018-Feb-14 16:29N 30°01' W 093°58'0 0.0
2018-Feb-14 15:56N 30°01' W 093°58'0 0.0
2018-Feb-14 15:29N 30°01' W 093°58'0 0.0
2018-Feb-14 14:59N 30°01' W 093°58'0 0.0
2018-Feb-14 14:29N 30°01' W 093°58'0 0.0
2018-Feb-14 13:59N 30°01' W 093°58'0 0.0
2018-Feb-14 13:29N 30°01' W 093°58'0 0.0
2018-Feb-14 12:59N 30°01' W 093°58'0 0.0
2018-Feb-14 12:29N 30°01' W 093°58'0 0.0
2018-Feb-14 11:56N 30°01' W 093°58'0 0.0
2018-Feb-14 11:26N 30°01' W 093°58'0 0.0
2018-Feb-14 10:59N 30°01' W 093°58'0 0.0
2018-Feb-14 10:26N 30°01' W 093°58'0 0.0
2018-Feb-14 09:59N 30°01' W 093°58'0 0.0
2018-Feb-14 09:26N 30°01' W 093°58'0 0.0
2018-Feb-14 08:56N 30°01' W 093°58'0 0.0
2018-Feb-14 08:29N 30°01' W 093°58'0 0.0
2018-Feb-14 07:59N 30°01' W 093°58'0 0.0
2018-Feb-14 07:29N 30°01' W 093°58'0 0.0
2018-Feb-14 06:56N 30°01' W 093°58'0 0.0
2018-Feb-14 06:29N 30°01' W 093°58'0 0.0
2018-Feb-14 05:59N 30°01' W 093°58'0 0.0
2018-Feb-14 05:29N 30°01' W 093°58'0 0.0
2018-Feb-14 04:56N 30°01' W 093°58'0 0.0
2018-Feb-14 04:29N 30°01' W 093°58'0 0.0
2018-Feb-14 03:59N 30°01' W 093°58'0 0.0
2018-Feb-14 03:29N 30°01' W 093°58'0 0.0
2018-Feb-14 02:59N 30°01' W 093°58'0 0.0
2018-Feb-14 02:26N 30°01' W 093°58'0 0.0
2018-Feb-14 01:59N 30°01' W 093°58'0 0.0
2018-Feb-14 01:29N 30°01' W 093°58'0 0.0
2018-Feb-14 00:56N 30°01' W 093°58'0 0.0
2018-Feb-14 00:29N 30°01' W 093°58'0 0.0
2018-Feb-13 23:59N 30°01' W 093°58'0 0.0
2018-Feb-13 23:26N 30°01' W 093°58'0 0.0
2018-Feb-13 22:53N 30°01' W 093°58'0 0.0
2018-Feb-13 22:29N 30°01' W 093°58'0 0.0
2018-Feb-13 21:56N 30°01' W 093°58'0 0.0
2018-Feb-13 19:28N 30°01' W 093°58'0 0.0
2018-Feb-13 18:58N 30°01' W 093°58'0 0.0
2018-Feb-13 18:28N 30°01' W 093°58'0 0.0
2018-Feb-13 17:58N 30°01' W 093°58'0 0.0
2018-Feb-13 17:28N 30°01' W 093°58'0 0.0
2018-Feb-13 16:58N 30°01' W 093°58'0 0.0
2018-Feb-13 16:28N 30°01' W 093°58'0 0.0
2018-Feb-13 15:58N 30°01' W 093°58'0 0.0
2018-Feb-13 15:28N 30°01' W 093°58'0 0.0
2018-Feb-13 14:58N 30°01' W 093°58'0 0.0
2018-Feb-13 14:28N 30°01' W 093°58'0 0.0
2018-Feb-13 13:55N 30°01' W 093°58'0 0.0
2018-Feb-13 13:28N 30°01' W 093°58'0 0.0
2018-Feb-13 12:58N 30°01' W 093°58'0 0.0
2018-Feb-13 12:28N 30°01' W 093°58'0 0.0
2018-Feb-13 11:52N 30°01' W 093°58'0 0.0
2018-Feb-13 11:28N 30°01' W 093°58'0 0.0
2018-Feb-13 10:58N 30°01' W 093°58'0 0.0
2018-Feb-13 10:28N 30°01' W 093°58'0 0.0
2018-Feb-13 09:58N 30°01' W 093°58'0 0.0
2018-Feb-13 09:28N 30°01' W 093°58'0 0.0
2018-Feb-13 08:58N 30°01' W 093°58'0 0.0
2018-Feb-13 08:28N 30°01' W 093°58'0 0.0
2018-Feb-13 07:58N 30°01' W 093°58'0 0.0
2018-Feb-13 07:28N 30°01' W 093°58'0 0.0
2018-Feb-13 06:58N 30°01' W 093°58'0 0.0
2018-Feb-13 06:28N 30°01' W 093°58'0 0.0
2018-Feb-13 05:58N 30°01' W 093°58'0 0.0
2018-Feb-13 05:28N 30°01' W 093°58'0 0.9
2018-Feb-13 05:00N 30°01' W 093°59'1 2.8
2018-Feb-13 04:30N 30°00' W 093°57'3 6.0
2018-Feb-13 04:00N 29°59' W 093°54'3 5.6
2018-Feb-13 03:31N 29°58' W 093°51'3 7.0
2018-Feb-13 03:00N 29°55' W 093°54'5 9.0
2018-Feb-13 02:30N 29°51' W 093°57'3 6.3
2018-Feb-13 02:00N 29°48' W 093°57'5 9.4
2018-Feb-13 01:30N 29°45' W 093°53'5 9.1
2018-Feb-13 01:00N 29°41' W 093°50'611.4
2018-Feb-13 00:30N 29°36' W 093°48'3 5.1
2018-Feb-13 00:00N 29°35' W 093°45'0 0.5
2018-Feb-12 23:28N 29°35' W 093°45'0 0.0
2018-Feb-12 22:58N 29°35' W 093°45'0 0.0
2018-Feb-12 22:28N 29°35' W 093°45'0 0.0
2018-Feb-12 21:58N 29°35' W 093°45'0 0.0
2018-Feb-12 21:25N 29°35' W 093°45'0 0.0
2018-Feb-12 20:52N 29°35' W 093°45'0 0.0
2018-Feb-12 20:28N 29°35' W 093°45'0 0.0
2018-Feb-12 19:58N 29°35' W 093°45'0 0.0
2018-Feb-12 19:28N 29°35' W 093°45'0 0.0
2018-Feb-12 18:58N 29°35' W 093°45'0 1.0
2018-Feb-12 18:30N 29°35' W 093°45'4 8.1
2018-Feb-12 18:00N 29°31' W 093°43'611.1
2018-Feb-12 17:30N 29°26' W 093°40'4 8.5
2018-Feb-12 17:00N 29°22' W 093°39'611.9
2018-Feb-12 16:30N 29°16' W 093°39'  
2018-Feb-10 05:12N 25°13' W 080°06'212.1
2018-Feb-10 05:00N 25°15' W 080°05'611.9
2018-Feb-10 04:30N 25°20' W 080°01'611.2
2018-Feb-10 04:00N 25°26' W 080°00'510.9
2018-Feb-10 03:31N 25°31' W 079°60'510.9
2018-Feb-10 03:00N 25°36' W 079°60'611.0
2018-Feb-10 02:30N 25°42' W 079°59'510.8
2018-Feb-10 02:00N 25°47' W 079°59'510.7
2018-Feb-10 01:30N 25°53' W 079°59'511.0
2018-Feb-10 01:00N 25°58' W 079°59'611.2
2018-Feb-10 00:30N 26°04' W 079°58'611.2
2018-Feb-10 00:00N 26°09' W 079°58'612.0
2018-Feb-09 23:30N 26°15' W 079°58'612.2
2018-Feb-09 23:00N 26°22' W 079°57'312.2
2018-Feb-09 22:46N 26°24' W 079°57'3412.4
2018-Feb-09 20:00N 26°59' W 079°57'  
Track history (hours):
 
Tides and Currents Weather Stations Pressure Air Temp Water Temp Dewpoint Dewpoint Depression Visibility Wind Speed Wind Dir Waves Ship Positions

Bay State

Owner: Crowley Petroleum Services, Inc., Jacksonville, FL. More information available from US FCC via Universal Licensing System and Coast Guard Vessel Documentation Center.

Last reported at 2018-Feb-19 18:00 UTC. Time now 2018-Feb-19 18:08 UTC.
Position N 29°35' W 093°48'.

Length 186 m; draft 11.7 m.

Type: Tanker. MMSI: 367677560.

Date/timePositionNaut miles runAvg speedWind from/ knotsBaromVisibWave heightAir tempDewpointWater temp
2018-Feb-19 18:00N 29°35' W 093°48'611.3
2018-Feb-19 17:30N 29°41' W 093°50'510.7
2018-Feb-19 17:00N 29°45' W 093°53'4 8.0
2018-Feb-19 16:30N 29°48' W 093°57'3 6.9
2018-Feb-19 16:00N 29°51' W 093°57'4 7.2
2018-Feb-19 15:30N 29°54' W 093°54'3 6.4
2018-Feb-19 15:00N 29°56' W 093°52'3 5.4
2018-Feb-19 14:30N 29°59' W 093°53'3 6.3
2018-Feb-19 14:00N 29°60' W 093°56'2 4.0
2018-Feb-19 13:30N 30°01' W 093°58'0 0.1
2018-Feb-19 12:58N 30°01' W 093°58'0 0.0
2018-Feb-19 12:28N 30°01' W 093°58'0 0.0
2018-Feb-19 11:59N 30°01' W 093°58'0 0.0
2018-Feb-19 11:31N 30°01' W 093°58'0 0.0
2018-Feb-19 11:00N 30°01' W 093°58'0 0.0
2018-Feb-19 10:31N 30°01' W 093°58'0 0.0
2018-Feb-19 10:00N 30°01' W 093°58'0 0.0
2018-Feb-19 09:31N 30°01' W 093°58'0 0.0
2018-Feb-19 09:00N 30°01' W 093°58'0 0.0
2018-Feb-19 08:30N 30°01' W 093°58'0 0.0
2018-Feb-19 07:59N 30°01' W 093°58'0 0.0
2018-Feb-19 07:30N 30°01' W 093°58'0 0.0
2018-Feb-19 07:01N 30°01' W 093°58'0 0.0
2018-Feb-19 06:31N 30°01' W 093°58'0 0.0
2018-Feb-19 05:58N 30°01' W 093°58'0 0.0
2018-Feb-19 05:28N 30°01' W 093°58'0 0.0
2018-Feb-19 04:59N 30°01' W 093°58'0 0.0
2018-Feb-19 04:28N 30°01' W 093°58'0 0.0
2018-Feb-19 03:55N 30°01' W 093°58'0 0.0
2018-Feb-19 03:28N 30°01' W 093°58'0 0.0
2018-Feb-19 02:58N 30°01' W 093°58'0 0.0
2018-Feb-19 02:28N 30°01' W 093°58'0 0.0
2018-Feb-19 01:55N 30°01' W 093°58'0 0.0
2018-Feb-19 01:28N 30°01' W 093°58'0 0.0
2018-Feb-19 00:58N 30°01' W 093°58'0 0.0
2018-Feb-19 00:28N 30°01' W 093°58'0 0.0
2018-Feb-18 23:55N 30°01' W 093°58'0 0.0
2018-Feb-18 23:28N 30°01' W 093°58'0 0.0
2018-Feb-18 22:58N 30°01' W 093°58'0 0.0
2018-Feb-18 22:28N 30°01' W 093°58'0 0.0
2018-Feb-18 21:58N 30°01' W 093°58'0 0.0
2018-Feb-18 21:28N 30°01' W 093°58'0 0.0
2018-Feb-18 20:55N 30°01' W 093°58'0 0.0
2018-Feb-18 20:28N 30°01' W 093°58'0 0.0
2018-Feb-18 19:58N 30°01' W 093°58'0 0.0
2018-Feb-18 19:25N 30°01' W 093°58'0 0.0
2018-Feb-18 18:55N 30°01' W 093°58'0 0.0
2018-Feb-18 18:28N 30°01' W 093°58'0 0.0
2018-Feb-18 17:58N 30°01' W 093°58'0 0.0
2018-Feb-18 17:25N 30°01' W 093°58'0 0.0
2018-Feb-18 16:58N 30°01' W 093°58'0 0.0
2018-Feb-18 16:28N 30°01' W 093°58'0 0.0
2018-Feb-18 15:58N 30°01' W 093°58'0 0.0
2018-Feb-18 15:28N 30°01' W 093°58'0 0.0
2018-Feb-18 14:58N 30°01' W 093°58'0 0.0
2018-Feb-18 14:31N 30°01' W 093°58'0 0.0
2018-Feb-18 14:01N 30°01' W 093°58'0 0.0
2018-Feb-18 13:31N 30°01' W 093°58'0 0.0
2018-Feb-18 13:00N 30°01' W 093°58'0 0.0
2018-Feb-18 12:31N 30°01' W 093°58'0 0.0
2018-Feb-18 12:00N 30°01' W 093°58'0 0.0
2018-Feb-18 11:31N 30°01' W 093°58'0 0.0
2018-Feb-18 11:00N 30°01' W 093°58'0 0.0
2018-Feb-18 10:30N 30°01' W 093°58'0 0.0
2018-Feb-18 10:01N 30°01' W 093°58'0 0.0
2018-Feb-18 09:28N 30°01' W 093°58'0 0.0
2018-Feb-18 08:58N 30°01' W 093°58'0 0.0
2018-Feb-18 08:28N 30°01' W 093°58'0 0.0
2018-Feb-18 07:58N 30°01' W 093°58'0 0.0
2018-Feb-18 07:28N 30°01' W 093°58'0 0.0
2018-Feb-18 06:58N 30°01' W 093°58'0 0.0
2018-Feb-18 06:30N 30°01' W 093°58'0 0.0
2018-Feb-18 06:01N 30°01' W 093°58'0 0.0
2018-Feb-18 05:30N 30°01' W 093°58'0 0.0
2018-Feb-18 05:00N 30°01' W 093°58'0 0.0
2018-Feb-18 04:29N 30°01' W 093°58'0 0.0
2018-Feb-18 03:59N 30°01' W 093°58'0 0.0
2018-Feb-18 03:29N 30°01' W 093°58'0 0.0
2018-Feb-18 02:59N 30°01' W 093°58'0 0.0
2018-Feb-18 02:29N 30°01' W 093°58'0 0.0
2018-Feb-18 01:59N 30°01' W 093°58'0 0.0
2018-Feb-18 01:26N 30°01' W 093°58'0 0.0
2018-Feb-18 00:59N 30°01' W 093°58'0 0.0
2018-Feb-18 00:29N 30°01' W 093°58'0 0.0
2018-Feb-17 23:59N 30°01' W 093°58'0 0.0
2018-Feb-17 23:28N 30°01' W 093°58'0 0.0
2018-Feb-17 22:58N 30°01' W 093°58'0 0.0
2018-Feb-17 22:25N 30°01' W 093°58'0 0.0
2018-Feb-17 22:01N 30°01' W 093°58'0 0.0
2018-Feb-17 21:30N 30°01' W 093°58'0 0.0
2018-Feb-17 21:00N 30°01' W 093°58'0 0.0
2018-Feb-17 20:26N 30°01' W 093°58'0 0.0
2018-Feb-17 19:56N 30°01' W 093°58'0 0.0
2018-Feb-17 19:29N 30°01' W 093°58'0 0.0
2018-Feb-17 18:56N 30°01' W 093°58'0 0.0
2018-Feb-17 18:29N 30°01' W 093°58'0 0.0
2018-Feb-17 18:00N 30°01' W 093°58'0 0.0
2018-Feb-17 17:30N 30°01' W 093°58'0 0.0
2018-Feb-17 17:01N 30°01' W 093°58'0 0.0
2018-Feb-17 16:30N 30°01' W 093°58'0 0.0
2018-Feb-17 16:00N 30°01' W 093°58'0 0.0
2018-Feb-17 15:31N 30°01' W 093°58'0 0.0
2018-Feb-17 15:01N 30°01' W 093°58'0 0.0
2018-Feb-17 14:31N 30°01' W 093°58'0 0.0
2018-Feb-17 14:01N 30°01' W 093°58'0 0.0
2018-Feb-17 13:30N 30°01' W 093°58'0 0.0
2018-Feb-17 13:01N 30°01' W 093°58'0 0.0
2018-Feb-17 12:30N 30°01' W 093°58'0 0.0
2018-Feb-17 11:58N 30°01' W 093°58'0 0.0
2018-Feb-17 11:25N 30°01' W 093°58'0 0.0
2018-Feb-17 10:58N 30°01' W 093°58'0 0.0
2018-Feb-17 10:28N 30°01' W 093°58'0 0.0
2018-Feb-17 09:58N 30°01' W 093°58'0 0.0
2018-Feb-17 09:28N 30°01' W 093°58'0 0.0
2018-Feb-17 08:58N 30°01' W 093°58'0 0.0
2018-Feb-17 08:28N 30°01' W 093°58'0 0.0
2018-Feb-17 07:58N 30°01' W 093°58'0 0.0
2018-Feb-17 07:30N 30°01' W 093°58'0 0.0
2018-Feb-17 07:01N 30°01' W 093°58'0 0.0
2018-Feb-17 06:28N 30°01' W 093°58'0 0.0
2018-Feb-17 06:00N 30°01' W 093°58'0 0.0
2018-Feb-17 05:26N 30°01' W 093°58'0 0.0
2018-Feb-17 04:58N 30°01' W 093°58'0 0.0
2018-Feb-17 04:29N 30°01' W 093°58'0 0.0
2018-Feb-17 03:52N 30°01' W 093°58'0 0.0
2018-Feb-17 03:29N 30°01' W 093°58'0 0.0
2018-Feb-17 02:59N 30°01' W 093°58'0 0.0
2018-Feb-17 02:28N 30°01' W 093°58'0 0.0
2018-Feb-17 01:58N 30°01' W 093°58'0 0.0
2018-Feb-17 01:28N 30°01' W 093°58'0 0.0
2018-Feb-17 00:58N 30°01' W 093°58'0 0.0
2018-Feb-17 00:25N 30°01' W 093°58'0 0.0
2018-Feb-16 23:58N 30°01' W 093°58'0 0.0
2018-Feb-16 23:30N 30°01' W 093°58'0 0.0
2018-Feb-16 23:01N 30°01' W 093°58'0 0.0
2018-Feb-16 22:30N 30°01' W 093°58'0 0.0
2018-Feb-16 22:01N 30°01' W 093°58'0 0.0
2018-Feb-16 21:31N 30°01' W 093°58'0 0.0
2018-Feb-16 21:00N 30°01' W 093°58'0 0.0
2018-Feb-16 20:30N 30°01' W 093°58'0 0.0
2018-Feb-16 20:01N 30°01' W 093°58'0 0.0
2018-Feb-16 19:30N 30°01' W 093°58'0 0.0
2018-Feb-16 19:01N 30°01' W 093°58'0 0.0
2018-Feb-16 18:31N 30°01' W 093°58'0 0.0
2018-Feb-16 18:01N 30°01' W 093°58'0 0.0
2018-Feb-16 17:31N 30°01' W 093°58'0 0.0
2018-Feb-16 17:01N 30°01' W 093°58'0 0.0
2018-Feb-16 16:31N 30°01' W 093°58'0 0.0
2018-Feb-16 16:00N 30°01' W 093°58'0 0.0
2018-Feb-16 15:31N 30°01' W 093°58'0 0.0
2018-Feb-16 14:59N 30°01' W 093°58'0 0.0
2018-Feb-16 14:29N 30°01' W 093°58'0 0.0
2018-Feb-16 13:59N 30°01' W 093°58'0 0.0
2018-Feb-16 13:29N 30°01' W 093°58'0 0.0
2018-Feb-16 12:59N 30°01' W 093°58'0 0.0
2018-Feb-16 12:29N 30°01' W 093°58'0 0.0
2018-Feb-16 11:59N 30°01' W 093°58'0 0.0
2018-Feb-16 11:26N 30°01' W 093°58'0 0.0
2018-Feb-16 10:59N 30°01' W 093°58'0 0.0
2018-Feb-16 10:30N 30°01' W 093°58'0 0.0
2018-Feb-16 09:58N 30°01' W 093°58'0 0.0
2018-Feb-16 09:28N 30°01' W 093°58'0 0.0
2018-Feb-16 08:58N 30°01' W 093°58'0 0.0
2018-Feb-16 08:30N 30°01' W 093°58'0 0.0
2018-Feb-16 07:59N 30°01' W 093°58'0 0.0
2018-Feb-16 07:31N 30°01' W 093°58'0 0.0
2018-Feb-16 07:00N 30°01' W 093°58'0 0.0
2018-Feb-16 06:30N 30°01' W 093°58'0 0.0
2018-Feb-16 06:00N 30°01' W 093°58'0 0.0
2018-Feb-16 05:30N 30°01' W 093°58'0 0.0
2018-Feb-16 04:50N 30°01' W 093°58'0 0.0
2018-Feb-16 04:29N 30°01' W 093°58'0 0.0
2018-Feb-16 03:59N 30°01' W 093°58'0 0.0
2018-Feb-16 03:30N 30°01' W 093°58'0 0.0
2018-Feb-16 02:58N 30°01' W 093°58'0 0.0
2018-Feb-16 02:28N 30°01' W 093°58'0 0.0
2018-Feb-16 02:00N 30°01' W 093°58'0 0.0
2018-Feb-16 01:28N 30°01' W 093°58'0 0.0
2018-Feb-16 00:58N 30°01' W 093°58'0 0.0
2018-Feb-16 00:29N 30°01' W 093°58'0 0.0
2018-Feb-16 00:00N 30°01' W 093°58'0 0.0
2018-Feb-15 23:30N 30°01' W 093°58'0 0.0
2018-Feb-15 23:00N 30°01' W 093°58'0 0.0
2018-Feb-15 22:30N 30°01' W 093°58'0 0.0
2018-Feb-15 22:00N 30°01' W 093°58'0 0.0
2018-Feb-15 21:30N 30°01' W 093°58'0 0.0
2018-Feb-15 21:00N 30°01' W 093°58'0 0.0
2018-Feb-15 20:30N 30°01' W 093°58'0 0.0
2018-Feb-15 20:00N 30°01' W 093°58'0 0.0
2018-Feb-15 19:30N 30°01' W 093°58'0 0.0
2018-Feb-15 19:00N 30°01' W 093°58'0 0.0
2018-Feb-15 18:30N 30°01' W 093°58'0 0.0
2018-Feb-15 18:00N 30°01' W 093°58'0 0.0
2018-Feb-15 17:30N 30°01' W 093°58'0 0.0
2018-Feb-15 17:00N 30°01' W 093°58'0 0.0
2018-Feb-15 16:30N 30°01' W 093°58'0 0.0
2018-Feb-15 16:00N 30°01' W 093°58'0 0.0
2018-Feb-15 15:27N 30°01' W 093°58'0 0.0
2018-Feb-15 15:00N 30°01' W 093°58'0 0.0
2018-Feb-15 14:24N 30°01' W 093°58'0 0.0
2018-Feb-15 14:00N 30°01' W 093°58'0 0.0
2018-Feb-15 13:24N 30°01' W 093°58'0 0.0
2018-Feb-15 13:00N 30°01' W 093°58'0 0.0
2018-Feb-15 12:30N 30°01' W 093°58'0 0.0
2018-Feb-15 12:00N 30°01' W 093°58'0 0.0
2018-Feb-15 11:27N 30°01' W 093°58'0 0.0
2018-Feb-15 10:57N 30°01' W 093°58'0 0.0
2018-Feb-15 10:30N 30°01' W 093°58'0 0.0
2018-Feb-15 10:00N 30°01' W 093°58'0 0.0
2018-Feb-15 09:30N 30°01' W 093°58'0 0.0
2018-Feb-15 09:00N 30°01' W 093°58'0 0.0
2018-Feb-15 08:30N 30°01' W 093°58'0 0.0
2018-Feb-15 08:00N 30°01' W 093°58'0 0.0
2018-Feb-15 07:30N 30°01' W 093°58'0 0.0
2018-Feb-15 07:00N 30°01' W 093°58'0 0.0
2018-Feb-15 06:24N 30°01' W 093°58'0 0.0
2018-Feb-15 06:00N 30°01' W 093°58'0 0.0
2018-Feb-15 05:27N 30°01' W 093°58'0 0.0
2018-Feb-15 05:00N 30°01' W 093°58'0 0.0
2018-Feb-15 04:30N 30°01' W 093°58'0 0.0
2018-Feb-15 04:00N 30°01' W 093°58'0 0.0
2018-Feb-15 03:30N 30°01' W 093°58'0 0.0
2018-Feb-15 03:00N 30°01' W 093°58'0 0.0
2018-Feb-15 02:30N 30°01' W 093°58'0 0.0
2018-Feb-15 02:00N 30°01' W 093°58'0 0.0
2018-Feb-15 01:30N 30°01' W 093°58'0 0.0
2018-Feb-15 00:54N 30°01' W 093°58'0 0.0
2018-Feb-15 00:31N 30°01' W 093°58'0 0.0
2018-Feb-14 23:59N 30°01' W 093°58'0 0.0
2018-Feb-14 23:26N 30°01' W 093°58'0 0.0
2018-Feb-14 22:59N 30°01' W 093°58'0 0.0
2018-Feb-14 22:29N 30°01' W 093°58'0 0.0
2018-Feb-14 21:56N 30°01' W 093°58'0 0.0
2018-Feb-14 21:29N 30°01' W 093°58'0 0.0
2018-Feb-14 20:59N 30°01' W 093°58'0 0.0
2018-Feb-14 20:29N 30°01' W 093°58'0 0.0
2018-Feb-14 19:59N 30°01' W 093°58'0 0.0
2018-Feb-14 19:29N 30°01' W 093°58'0 0.0
2018-Feb-14 18:59N 30°01' W 093°58'0 0.0
2018-Feb-14 18:29N 30°01' W 093°58'0 0.0
2018-Feb-14 17:59N 30°01' W 093°58'0 0.0
2018-Feb-14 17:29N 30°01' W 093°58'0 0.0
2018-Feb-14 16:59N 30°01' W 093°58'0 0.0
2018-Feb-14 16:29N 30°01' W 093°58'0 0.0
2018-Feb-14 15:56N 30°01' W 093°58'0 0.0
2018-Feb-14 15:29N 30°01' W 093°58'0 0.0
2018-Feb-14 14:59N 30°01' W 093°58'0 0.0
2018-Feb-14 14:29N 30°01' W 093°58'0 0.0
2018-Feb-14 13:59N 30°01' W 093°58'0 0.0
2018-Feb-14 13:29N 30°01' W 093°58'0 0.0
2018-Feb-14 12:59N 30°01' W 093°58'0 0.0
2018-Feb-14 12:29N 30°01' W 093°58'0 0.0
2018-Feb-14 11:56N 30°01' W 093°58'0 0.0
2018-Feb-14 11:26N 30°01' W 093°58'0 0.0
2018-Feb-14 10:59N 30°01' W 093°58'0 0.0
2018-Feb-14 10:26N 30°01' W 093°58'0 0.0
2018-Feb-14 09:59N 30°01' W 093°58'0 0.0
2018-Feb-14 09:26N 30°01' W 093°58'0 0.0
2018-Feb-14 08:56N 30°01' W 093°58'0 0.0
2018-Feb-14 08:29N 30°01' W 093°58'0 0.0
2018-Feb-14 07:59N 30°01' W 093°58'0 0.0
2018-Feb-14 07:29N 30°01' W 093°58'0 0.0
2018-Feb-14 06:56N 30°01' W 093°58'0 0.0
2018-Feb-14 06:29N 30°01' W 093°58'0 0.0
2018-Feb-14 05:59N 30°01' W 093°58'0 0.0
2018-Feb-14 05:29N 30°01' W 093°58'0 0.0
2018-Feb-14 04:56N 30°01' W 093°58'0 0.0
2018-Feb-14 04:29N 30°01' W 093°58'0 0.0
2018-Feb-14 03:59N 30°01' W 093°58'0 0.0
2018-Feb-14 03:29N 30°01' W 093°58'0 0.0
2018-Feb-14 02:59N 30°01' W 093°58'0 0.0
2018-Feb-14 02:26N 30°01' W 093°58'0 0.0
2018-Feb-14 01:59N 30°01' W 093°58'0 0.0
2018-Feb-14 01:29N 30°01' W 093°58'0 0.0
2018-Feb-14 00:56N 30°01' W 093°58'0 0.0
2018-Feb-14 00:29N 30°01' W 093°58'0 0.0
2018-Feb-13 23:59N 30°01' W 093°58'0 0.0
2018-Feb-13 23:26N 30°01' W 093°58'0 0.0
2018-Feb-13 22:53N 30°01' W 093°58'0 0.0
2018-Feb-13 22:29N 30°01' W 093°58'0 0.0
2018-Feb-13 21:56N 30°01' W 093°58'0 0.0
2018-Feb-13 19:28N 30°01' W 093°58'0 0.0
2018-Feb-13 18:58N 30°01' W 093°58'0 0.0
2018-Feb-13 18:28N 30°01' W 093°58'0 0.0
2018-Feb-13 17:58N 30°01' W 093°58'0 0.0
2018-Feb-13 17:28N 30°01' W 093°58'0 0.0
2018-Feb-13 16:58N 30°01' W 093°58'0 0.0
2018-Feb-13 16:28N 30°01' W 093°58'0 0.0
2018-Feb-13 15:58N 30°01' W 093°58'0 0.0
2018-Feb-13 15:28N 30°01' W 093°58'0 0.0
2018-Feb-13 14:58N 30°01' W 093°58'0 0.0
2018-Feb-13 14:28N 30°01' W 093°58'0 0.0
2018-Feb-13 13:55N 30°01' W 093°58'0 0.0
2018-Feb-13 13:28N 30°01' W 093°58'0 0.0
2018-Feb-13 12:58N 30°01' W 093°58'0 0.0
2018-Feb-13 12:28N 30°01' W 093°58'0 0.0
2018-Feb-13 11:52N 30°01' W 093°58'0 0.0
2018-Feb-13 11:28N 30°01' W 093°58'0 0.0
2018-Feb-13 10:58N 30°01' W 093°58'0 0.0
2018-Feb-13 10:28N 30°01' W 093°58'0 0.0
2018-Feb-13 09:58N 30°01' W 093°58'0 0.0
2018-Feb-13 09:28N 30°01' W 093°58'0 0.0
2018-Feb-13 08:58N 30°01' W 093°58'0 0.0
2018-Feb-13 08:28N 30°01' W 093°58'0 0.0
2018-Feb-13 07:58N 30°01' W 093°58'0 0.0
2018-Feb-13 07:28N 30°01' W 093°58'0 0.0
2018-Feb-13 06:58N 30°01' W 093°58'0 0.0
2018-Feb-13 06:28N 30°01' W 093°58'0 0.0
2018-Feb-13 05:58N 30°01' W 093°58'0 0.0
2018-Feb-13 05:28N 30°01' W 093°58'0 0.9
2018-Feb-13 05:00N 30°01' W 093°59'1 2.8
2018-Feb-13 04:30N 30°00' W 093°57'3 6.0
2018-Feb-13 04:00N 29°59' W 093°54'3 5.6
2018-Feb-13 03:31N 29°58' W 093°51'3 7.0
2018-Feb-13 03:00N 29°55' W 093°54'5 9.0
2018-Feb-13 02:30N 29°51' W 093°57'3 6.3
2018-Feb-13 02:00N 29°48' W 093°57'5 9.4
2018-Feb-13 01:30N 29°45' W 093°53'5 9.1
2018-Feb-13 01:00N 29°41' W 093°50'611.4
2018-Feb-13 00:30N 29°36' W 093°48'3 5.1
2018-Feb-13 00:00N 29°35' W 093°45'0 0.5
2018-Feb-12 23:28N 29°35' W 093°45'0 0.0
2018-Feb-12 22:58N 29°35' W 093°45'0 0.0
2018-Feb-12 22:28N 29°35' W 093°45'0 0.0
2018-Feb-12 21:58N 29°35' W 093°45'0 0.0
2018-Feb-12 21:25N 29°35' W 093°45'0 0.0
2018-Feb-12 20:52N 29°35' W 093°45'0 0.0
2018-Feb-12 20:28N 29°35' W 093°45'0 0.0
2018-Feb-12 19:58N 29°35' W 093°45'0 0.0
2018-Feb-12 19:28N 29°35' W 093°45'0 0.0
2018-Feb-12 18:58N 29°35' W 093°45'0 1.0
2018-Feb-12 18:30N 29°35' W 093°45'4 8.1
2018-Feb-12 18:00N 29°31' W 093°43'611.1
2018-Feb-12 17:30N 29°26' W 093°40'4 8.5
2018-Feb-12 17:00N 29°22' W 093°39'611.9
2018-Feb-12 16:30N 29°16' W 093°39'  
2018-Feb-10 05:12N 25°13' W 080°06'212.1
2018-Feb-10 05:00N 25°15' W 080°05'611.9
2018-Feb-10 04:30N 25°20' W 080°01'611.2
2018-Feb-10 04:00N 25°26' W 080°00'510.9
2018-Feb-10 03:31N 25°31' W 079°60'510.9
2018-Feb-10 03:00N 25°36' W 079°60'611.0
2018-Feb-10 02:30N 25°42' W 079°59'510.8
2018-Feb-10 02:00N 25°47' W 079°59'510.7
2018-Feb-10 01:30N 25°53' W 079°59'511.0
2018-Feb-10 01:00N 25°58' W 079°59'611.2
2018-Feb-10 00:30N 26°04' W 079°58'611.2
2018-Feb-10 00:00N 26°09' W 079°58'612.0
2018-Feb-09 23:30N 26°15' W 079°58'612.2
2018-Feb-09 23:00N 26°22' W 079°57'312.2
2018-Feb-09 22:46N 26°24' W 079°57'3412.4
2018-Feb-09 20:00N 26°59' W 079°57'  

Dump ship's entire track history